Station: Mackay Racecourse

  Atmospheric Gas Attenuation - ITU Rec 676-11   --------------- db/100km ---------------
Date Time Temp RH % AH g/m3 Dew Point Wind Direction Speed kph Gust kph Barometer mB Rainfall Since 9am 24GHz 47GHz 76GHz 122GHz 134GHz 241GHz
06 16:50 29.6 63 18.7 21.8 17 20 1013.1 0 39.9 37.4 71.3 188.7 207.1 719.9
06 16:40 29.7 63 18.8 21.9 11 13 1013.1 0 40.1 37.5 71.7 189.6 208.3 723.9
06 16:30 29.7 64 19.1 22.2 19 26 1013.1 0 40.7 38.0 73.0 193.2 212.6 739.0
06 16:20 29.8 63 18.9 22 19 26 1013.1 0 40.3 37.6 72.0 190.6 209.4 728.0
06 16:10 29.9 60 18.1 21.5 19 22 1013.1 0 38.6 36.2 68.5 181.1 197.8 687.4
06 16:00 30.1 60 18.3 21.7 17 24 1013.1 0 39.0 36.5 69.1 182.9 200.1 695.5
06 15:50 30.1 62 18.91 22 17 19 1013.1 0 40.2 37.5 71.8 189.9 208.7 725.6
06 15:40 30.2 60 18.4 21.8 19 22 1013.1 0 39.2 36.6 69.5 183.8 201.2 699.5
06 15:30 30.4 60 18.6 22 17 26 1013.1 0 39.6 36.9 70.2 185.6 203.5 707.5
06 15:20 30.6 62 19.42 22.7 19 22 1013.1 0 41.3 38.2 73.6 194.7 214.7 746.3
06 15:10 30.3 62 19.11 22.2 19 22 1013.1 0 40.6 37.8 72.5 191.8 211.1 733.7
06 15:00 30.3 63 19.42 22.5 17 24 1013.1 0 41.3 38.3 73.9 195.4 215.5 749.3
06 14:50 31 63 20.17 23.1 17 24 1013.1 0 42.8 39.4 76.5 202.5 224.4 780.2
06 14:40 30.6 59 18.48 21.9 17 20 1013.1 0 39.3 36.6 69.5 183.8 201.3 699.8
06 14:30 30.9 58 18.47 21.9 15 22 1013.1 0 39.2 36.4 69.2 182.9 200.4 696.6
06 14:20 30.4 58 17.98 21.4 17 19 1013.1 0 38.3 35.8 67.5 178.5 194.8 677.2
06 14:10 30.7 59 18.58 22 17 20 1013.1 0 39.5 36.7 69.8 184.7 202.4 703.8
06 14:00 30.6 61 19.11 22.2 17 28 1013.1 0 40.6 37.7 72.2 191.0 210.2 730.9
06 13:50 30.5 58 18.07 21.5 17 24 1013.1 0 38.4 35.9 67.8 179.3 195.8 680.7
06 13:40 30.9 57 18.15 21.6 19 20 1013.1 0 38.6 35.9 67.8 179.3 195.9 681.0
06 13:30 31 57 18.25 21.5 17 24 1013.1 0 38.8 36.0 68.1 180.2 197.0 685.0
06 13:20 30.5 54 16.83 20.4 19 22 1013.1 0 35.9 33.8 62.6 165.5 178.8 621.4
06 13:10 30.6 56 17.54 20.8 13 19 1013.1 0 37.3 34.9 65.5 173.1 188.2 654.3
06 13:00 30.6 53 16.6 20.2 19 26 1013.1 0 35.4 33.4 61.6 162.7 175.5 609.8
06 12:50 30.5 57 17.76 21 22 26 1013.1 0 37.8 35.4 66.5 175.8 191.5 665.7
06 12:40 30.3 51 15.72 19.3 20 26 1013.1 0 33.6 32.0 58.2 153.8 164.5 571.4
06 12:30 30.3 52 16.03 19.6 20 30 1013.1 0 34.2 32.6 59.5 157.2 168.6 585.7
06 12:20 30.6 51 15.98 19.6 19 24 1013.1 0 34.1 32.4 59.1 156.0 167.2 581.1
06 12:10 29.9 52 15.69 19.2 19 22 1013.1 0 33.5 32.1 58.4 154.3 164.9 572.9
06 12:00 30 53 16.08 19.4 17 24 1013.1 0 34.3 32.7 59.9 158.3 169.9 590.2
06 11:50 30.3 53 16.34 19.9 22 24 1013.1 0 34.9 33.1 60.7 160.5 172.7 600.0
06 11:40 29.8 54 16.2 19.7 19 20 1013.1 0 34.6 33.0 60.6 160.0 171.9 597.3
06 11:30 30.5 53 16.52 20.1 11 20 1013.1 0 35.2 33.3 61.3 162.1 174.6 606.9
06 11:20 29.7 60 17.91 21.1 9 11 1013.1 0 38.2 35.9 67.8 179.3 195.6 679.9
06 11:10 29.6 55 16.32 19.8 15 17 1013.1 0 34.9 33.3 61.2 161.7 174.0 604.5
06 11:00 30.4 55 17.05 20.6 13 19 1013.1 0 36.3 34.2 63.6 168.1 182.0 632.6
06 10:50 30.1 56 17.08 20.6 15 19 1013.1 0 36.4 34.4 64.0 169.1 183.1 636.5
06 10:40 30 56 16.99 20.5 11 15 1013.1 0 36.2 34.3 63.7 168.3 182.1 633.0
06 10:30 29.8 57 17.1 20.6 11 19 1013.1 0 36.5 34.5 64.3 170.0 184.1 639.9
06 10:20 29.7 58 17.31 20.8 11 13 1013.1 0 36.9 34.9 65.3 172.5 187.3 650.8
06 10:10 29.6 58 17.21 20.7 11 15 1013.1 0 36.7 34.8 64.9 171.6 186.1 646.8
06 10:00 29.4 58 17.03 20.3 13 20 1013.1 0 36.4 34.6 64.3 170.1 184.1 639.8
06 09:50 29.6 61 18.1 21.5 13 17 1013.1 0 38.6 36.3 68.7 181.8 198.6 690.1
06 09:40 28.8 64 18.19 21.3 9 13 1013.1 0 38.9 36.8 69.8 184.7 201.9 701.8
06 09:30 28.5 65 18.17 21.3 15 20 1013.1 0 38.8 36.9 70.0 185.2 202.5 703.5
06 09:20 28.3 65 17.97 21.3 19 22 1013.1 0 38.4 36.6 69.3 183.3 200.1 695.4
06 09:10 28.1 68 18.6 21.8 11 11 1013.1 0 39.8 37.9 72.3 191.2 209.8 729.0
06 09:00 27.7 72 19.26 22.2 9 13 1013.1 0 41.2 39.2 75.7 200.2 220.7 766.8
06 08:50 27.1 77 19.93 22.7 9 11 1013.1 0 42.7 40.8 79.4 210.1 232.6 808.4
06 08:40 26.7 78 19.74 22.5 6 7 1013.1 0 42.3 40.6 78.9 208.8 231.0 802.5
06 08:30 26.4 78 19.42 22.3 2 6 1013.1 0 41.7 40.2 77.7 205.6 227.0 788.6
06 08:20 25.9 79 19.13 22.1 0 0 1013.1 0 41.1 39.9 76.9 203.4 224.0 778.3
06 08:10 25.3 81 18.96 21.8 0 0 1013.1 0 40.8 39.8 76.7 202.9 223.2 775.4
06 08:00 24.6 84 18.91 21.7 0 4 1013.1 0 40.8 40.1 77.2 204.1 224.6 779.9
06 07:50 23.5 87 18.4 21.2 0 0 1013.1 0 39.8 39.6 75.9 200.6 219.9 763.7
06 07:40 22.8 89 18.08 21 0 0 1013.1 0 39.2 39.3 75.0 198.4 217.0 753.4
06 07:30 22.6 93 18.68 21.4 0 2 1013.1 0 40.5 40.6 78.1 206.6 227.0 788.2
06 07:20 22.2 95 18.65 21.3 0 0 1013.1 0 40.5 40.7 78.4 207.3 227.8 790.8
06 07:10 22.1 96 18.74 21.4 0 0 1013.1 0 40.7 40.9 78.9 208.8 229.5 796.9
06 07:00 21.9 97 18.72 21.4 0 0 1013.1 0 40.7 41.0 79.1 209.1 229.8 797.9
06 06:50 21.2 97 17.97 20.7 0 0 1013.1 0 39.2 39.9 76.1 201.2 220.0 763.5
06 06:40 20.8 97 17.56 20.3 6 6 1013.1 0 38.3 39.3 74.5 197.0 214.7 744.9
06 06:30 20.4 97 17.16 19.9 6 6 1013.1 0 37.5 38.7 73.0 192.9 209.5 726.9
06 06:20 19.9 96 16.49 19.2 4 4 1013.1 0 36.1 37.6 70.2 185.6 200.4 695.1
06 06:10 19.8 96 16.4 19.1 0 0 1013.1 0 35.9 37.5 69.9 184.7 199.2 691.2
06 06:00 20.2 97 16.96 19.7 4 7 1013.1 0 37.1 38.4 72.2 190.9 206.9 717.9
06 05:50 20.1 97 16.86 19.6 4 7 1013.1 0 36.9 38.2 71.8 189.8 205.6 713.4
06 05:40 19.8 96 16.4 19.1 4 4 1013.1 0 35.9 37.5 69.9 184.7 199.2 691.2
06 05:30 19.9 96 16.49 19.2 2 4 1013.1 0 36.1 37.6 70.2 185.6 200.4 695.1
06 05:20 20.1 96 16.69 19.4 2 4 1013.1 0 36.5 37.9 71.0 187.7 203.0 704.1
06 05:10 20.4 97 17.16 19.9 6 6 1013.1 0 37.5 38.7 73.0 192.9 209.5 726.9
06 05:00 20.3 96 16.88 19.6 2 4 1013.1 0 36.9 38.2 71.7 189.6 205.4 712.6
06 04:50 20.2 96 16.78 19.5 4 4 1013.1 0 36.7 38.0 71.3 188.6 204.1 708.1
06 04:40 20.3 96 16.88 19.6 0 0 1013.1 0 36.9 38.2 71.7 189.6 205.4 712.6
06 04:10 20.6 96 17.18 19.9 0 0 1013.1 0 37.5 38.6 72.9 192.7 209.2 726.1
06 04:00 20.5 96 17.08 19.8 0 0 1013.1 0 37.3 38.5 72.5 191.6 207.9 721.6
06 03:50 20.8 96 17.38 20.1 0 0 1013.1 0 37.9 38.9 73.6 194.7 211.8 735.0
06 03:40 20.7 96 17.28 20 0 0 1013.1 0 37.7 38.8 73.3 193.7 210.5 730.6
06 03:30 20.7 96 17.28 20 0 0 1013.1 0 37.7 38.8 73.3 193.7 210.5 730.6
06 03:20 20.7 96 17.28 20 0 0 1013.1 0 37.7 38.8 73.3 193.7 210.5 730.6
06 03:10 20.7 96 17.28 20 0 0 1013.1 0 37.7 38.8 73.3 193.7 210.5 730.6
06 03:00 20.6 95 17 19.8 2 4 1013.1 0 37.1 38.3 72.0 190.4 206.4 716.2
06 02:50 20.8 95 17.2 19.9 4 4 1013.1 0 37.5 38.6 72.8 192.4 209.0 725.2
06 02:40 20.5 94 16.72 19.5 4 4 1013.1 0 36.5 37.8 70.8 187.1 202.3 702.0
06 02:30 20.7 94 16.92 19.7 0 4 1013.1 0 36.9 38.1 71.5 189.1 204.9 711.0
06 02:20 20.9 94 17.12 19.9 0 0 1013.1 0 37.4 38.4 72.3 191.1 207.5 719.9
06 02:10 21.1 94 17.32 20.1 2 2 1013.1 0 37.8 38.7 73.1 193.2 210.0 728.9
06 02:00 21.2 94 17.42 20.2 4 4 1013.1 0 38.0 38.8 73.4 194.2 211.3 733.3
06 01:50 21.2 93 17.23 20 4 4 1013.1 0 37.6 38.4 72.5 191.8 208.3 723.0
06 01:40 21.3 93 17.33 20.1 2 4 1013.1 0 37.8 38.6 72.9 192.8 209.6 727.5
06 01:30 21.5 93 17.54 20.3 4 6 1013.1 0 38.2 38.9 73.7 194.9 212.3 736.9
06 01:20 21.7 93 17.74 20.5 4 6 1013.1 0 38.6 39.2 74.5 197.0 214.9 745.9
06 01:10 21.7 92 17.55 20.3 4 4 1013.1 0 38.2 38.8 73.6 194.5 211.9 735.5
06 01:00 21.8 92 17.65 20.4 6 9 1013.1 0 38.4 39.0 74.0 195.6 213.2 740.0
06 00:50 21.9 92 17.75 20.5 7 7 1013.1 0 38.6 39.1 74.3 196.6 214.5 744.4
06 00:40 21.9 93 17.94 20.7 7 7 1013.1 0 39.0 39.5 75.3 199.0 217.4 754.8
06 00:30 21.9 93 17.94 20.7 7 11 1013.1 0 39.0 39.5 75.3 199.0 217.4 754.8
06 00:20 21.9 93 17.94 20.7 7 9 1013.1 0 39.0 39.5 75.3 199.0 217.4 754.8
06 00:10 22 93 18.05 20.9 9 11 1013.1 0 39.2 39.6 75.7 200.1 218.9 759.8
06 00:00 22 94 18.24 21 7 9 1013.1 0 39.7 40.0 76.6 202.6 221.9 770.2

Last Refresh: 06-Mar-2021 17:32:42

Most of the information presented on this site is sourced from the Bureau of Meteorology.  Copyright in all material sourced from the Bureau of Meteorology resides with the Commonwealth of Australia.